Flight Track Log - Related Links

Times and Time Zones

All times are in EDT time to prevent confusion due to time zone crossing. See the JBU56 flight status page for this flight to view local times or setup timezone preferences in your user account.

Time Position Orientation Groundspeed Altitude Reporting Facility
EDT Latitude Longitude Course Direction KTS MPH feet Rate Location/Type
Wed 09:51:49 AM 40.6333 -73.8167 21° North 156 180 1,700  Level New York TRACON
Wed 09:52:49 AM 40.6000 -73.8667 229° Southwest 234 269 3,200 1,800 Climbing New York TRACON
Wed 09:53:49 AM 40.5833 -73.7667 102° East 285 328 5,300 2,500 Climbing New York TRACON
Wed 09:54:00 AM 40.9408 -73.6046 21° North  Level FlightAware Approximate
Wed 09:54:49 AM 40.5667 -73.6667 102° East 316 364 8,200  Level New York TRACON
Wed 09:55:00 AM 41.0220 -73.5631 27° Northeast  Level FlightAware Approximate
Wed 09:55:55 AM 40.6500 -73.6000 31° Northeast 289 333 11,700  Level New York TRACON
Wed 09:56:00 AM 41.0998 -73.5113 27° Northeast  Level FlightAware Approximate
Wed 09:56:49 AM 40.7333 -73.5833 North 325 374 13,000  Level New York TRACON
Wed 09:57:00 AM 41.1781 -73.4609 21° North  Level FlightAware Approximate
Wed 09:58:39 AM 40.8947 -73.5164 17° North 358 412 17,500  Level Boston Center
Wed 09:59:39 AM 40.9931 -73.4850 14° North 358 412 20,000 1,750 Climbing Boston Center
Wed 10:00:39 AM 41.0808 -73.4561 14° North 358 412 21,000 500 Climbing Boston Center
Wed 10:01:39 AM 41.1917 -73.4167 15° North 365 420 21,000  Level Boston Center
Wed 10:02:39 AM 41.2772 -73.3875 14° North 365 420 21,000  Level Boston Center
Wed 10:03:39 AM 41.3881 -73.3475 15° North 360 414 21,000  Level Boston Center
Wed 10:04:51 AM 41.4819 -73.3239 11° North 360 414 21,000  Level Boston Center
Wed 10:05:51 AM 41.6114 -73.3203 North 360 414 21,000  Level Boston Center
Wed 10:06:51 AM 41.7092 -73.3244 358° North 355 409 21,000  Level Boston Center
Wed 10:07:51 AM 41.8092 -73.3258 359° North 355 409 21,000  Level Boston Center
Wed 10:08:51 AM 41.9092 -73.3272 359° North 355 409 21,000  Level Boston Center
Wed 10:09:51 AM 42.0092 -73.3286 359° North 355 409 21,000  Level Boston Center
Wed 10:10:51 AM 42.1092 -73.3300 359° North 355 409 21,000  Level Boston Center
Wed 10:11:51 AM 42.2092 -73.3342 358° North 355 409 21,000  Level Boston Center
Wed 10:12:51 AM 42.3094 -73.3356 359° North 355 409 21,000  Level Boston Center
Wed 10:13:51 AM 42.4072 -73.3342 North 350 403 21,000  Level Boston Center
Wed 10:14:51 AM 42.5094 -73.3356 359° North 350 403 21,000  Level Boston Center
Wed 10:15:51 AM 42.5906 -73.3397 358° North 355 409 21,000  Level Boston Center
Wed 10:16:51 AM 42.7011 -73.3442 358° North 361 415 21,000  Level Boston Center
Wed 10:17:51 AM 42.8053 -73.3456 359° North 361 415 21,000  Level Boston Center
Wed 10:18:51 AM 42.9053 -73.3472 359° North 361 415 21,000  Level Boston Center
Wed 10:19:51 AM 43.0075 -73.3458 North 361 415 21,000  Level Boston Center
Wed 10:20:51 AM 43.1075 -73.3331 North 361 415 21,000  Level Boston Center
Wed 10:21:51 AM 43.2078 -73.3203 North 361 415 21,000  Level Boston Center
Wed 10:22:51 AM 43.3100 -73.3075 North 366 421 21,000 -250 Level Boston Center
Wed 10:23:51 AM 43.4183 -73.2889 North 366 421 20,500 -1,250 Descending Boston Center
Wed 10:24:51 AM 43.5228 -73.2761 North 366 421 18,500 -1,900 Descending Boston Center
Wed 10:25:51 AM 43.6186 -73.2661 North 366 421 16,700 -1,750 Descending Boston Center
Wed 10:26:51 AM 43.7061 -73.2586 North 355 409 15,000 -1,700 Descending Boston Center
Wed 10:27:51 AM 43.7958 -73.2456 North 341 392 13,300 -1,750 Descending Boston Center
Wed 10:28:51 AM 43.8878 -73.2322 North 330 380 11,500 -1,150 Descending Boston Center
Wed 10:29:51 AM 43.9858 -73.2192 North 330 380 11,000 -600 Descending Boston Center
Wed 10:30:51 AM 44.0608 -73.2058 North 294 338 10,300 -1,000 Descending Boston Center
Wed 10:31:51 AM 44.0822 -73.1106 73° East 229 264 9,000 -1,150 Descending Boston Center
Wed 10:32:51 AM 44.0953 -73.0094 80° East 242 278 8,000 -500 Descending Boston Center
Wed 10:33:51 AM 44.1061 -72.9083 81° East 260 299 8,000  Level Boston Center
Wed 10:34:51 AM 44.1294 -72.8219 69° East 253 291 8,000 -350 Level Boston Center
Wed 10:35:51 AM 44.1878 -72.7933 19° North 206 237 7,300 -900 Descending Boston Center
Wed 10:36:51 AM 44.2483 -72.7589 22° Northeast 213 245 6,200 -591 Descending Boston Center
Wed 10:38:03 AM 44.3047 -72.7331 18° North 213 245 6,000 -91 Descending Boston Center
Wed 10:39:03 AM 44.3483 -72.8144 307° West 177 204 6,000 -545 Level Boston Center
Wed 10:40:15 AM 44.3772 -72.8989 296° West 209 241 4,800 -1,273 Descending Boston Center
Wed 10:41:15 AM 44.4100 -72.9894 297° West 210 242 3,200 -1,350 Descending Boston Center
Wed 10:42:15 AM 44.4306 -73.0506 295° West 183 211 2,100 -1,100 Descending Boston Center

Login

Don't have an account? Register now (free) for customized features, flight alerts, and more!